Rosebud, Texas
Current Conditions -  °F | °C
As of 7:35 PM on Monday 20 Oct 2014 (Local Time) from KT35 Reporting Station
Clear Clear  
Wind Chill: 72°   Ceiling: Unl
Heat Index: 72°   Visibility: 10mi
Dew Point: 61°   Wind: 3mph
Humidity: 67%   Direction: 100°E
Pressure: 30.01"   Gusts: NA
Location:  31.07°N, 96.98°W
Report Text: KT35 210035Z AUTO 10003KT 10SM CLR 22/16 A3001 RMK AO2 T02230160
Loading
Personal Weather Stations






























Interactive Weather Map New forecast layout! Learn more

10-Day Weather Forecast

Advertisements
Track Severe Weather on mobile